Time;durP1;ratioP1;P1;durP2;ratioP2;P2;SDS_P1;SDS_P2;PMS_P1;PMS_P2;Temp;Humidity;BMP_temperature;BMP_pressure;BME280_temperature;BME280_humidity;BME280_pressure;Samples;Min_cycle;Max_cycle;Signal;HPM_P1;HPM_P2
2023/05/09 14:20:36;;;;;;;;;;;;;;;24.24;52.52;95661.50;2099162;28;20337;-87
2023/05/09 14:21:38;;;;;;;;;;;;;;;24.35;47.81;95660.34;2116969;28;20157;-88
2023/05/09 14:22:39;;;;;;;6.47;3.78;;;;;;;24.44;49.68;95659.38;2087383;28;20280;-91
2023/05/09 14:23:42;;;;;;;11.32;3.72;;;;;;;24.59;49.00;95636.50;2088437;28;20564;-85
2023/05/09 14:24:43;;;;;;;10.25;3.78;;;;;;;24.73;47.97;95639.47;2066473;28;20051;-81
2023/05/09 14:26:10;;;;;;;9.65;3.72;;;;;;;24.98;47.15;95653.50;2090496;28;20148;-88
2023/05/09 14:27:12;;;;;;;10.15;3.83;;;;;;;25.01;45.79;95642.53;2098990;28;20302;-80
2023/05/09 14:28:13;;;;;;;8.55;3.80;;;;;;;25.14;46.76;95644.66;2081372;28;20057;-78
2023/05/09 14:29:19;;;;;;;7.75;3.47;;;;;;;25.20;46.77;95641.34;2092853;28;20045;-92
2023/05/09 14:30:20;;;;;;;7.30;3.47;;;;;;;25.29;47.71;95640.34;2096913;28;20057;-80
2023/05/09 14:31:21;;;;;;;5.88;3.45;;;;;;;25.34;46.88;95638.00;2088127;28;20053;-85
2023/05/09 14:32:23;;;;;;;8.45;3.85;;;;;;;25.61;48.14;95636.69;2105544;28;20067;-85
2023/05/09 14:33:26;;;;;;;7.72;3.95;;;;;;;25.88;48.88;95634.59;2096904;28;20067;-86
2023/05/09 14:34:29;;;;;;;15.77;3.58;;;;;;;26.46;48.21;95625.13;2079573;28;20061;-86
2023/05/09 14:35:32;;;;;;;5.63;3.35;;;;;;;26.31;45.94;95613.66;2089211;28;20038;-89
2023/05/09 14:36:37;;;;;;;7.75;3.40;;;;;;;26.83;43.58;95613.66;2091476;28;20038;-89
2023/05/09 14:37:40;;;;;;;10.85;3.42;;;;;;;26.44;44.47;95624.53;2090299;28;20057;-90
2023/05/09 14:38:45;;;;;;;6.40;3.95;;;;;;;26.03;44.70;95606.19;2089401;28;20060;-92
2023/05/09 14:39:48;;;;;;;8.43;3.42;;;;;;;25.93;45.26;95619.75;2086033;28;20053;-93
2023/05/09 14:40:49;;;;;;;6.68;3.42;;;;;;;26.73;47.83;95596.28;2099716;28;20068;-95
2023/05/09 14:41:50;;;;;;;12.60;3.90;;;;;;;26.30;43.86;95598.66;2099553;28;20048;-91
2023/05/09 14:42:53;;;;;;;8.90;3.67;;;;;;;25.84;44.53;95580.91;2093478;28;20109;-91
2023/05/09 14:43:54;;;;;;;8.20;3.08;;;;;;;25.82;45.45;95624.59;2093535;28;20060;-90
2023/05/09 14:57:42;;;;;;;5.78;3.22;;;;;;;25.21;47.69;95542.88;2107729;27;20722;-88
2023/05/09 14:58:47;;;;;;;6.75;3.15;;;;;;;25.49;48.28;95590.22;2092189;28;20048;-91
2023/05/09 14:59:51;;;;;;;7.78;3.65;;;;;;;25.37;48.37;95575.66;2071094;28;20109;-94
2023/05/09 15:00:53;;;;;;;6.90;3.00;;;;;;;25.24;48.47;95578.91;2068286;28;20130;-89
2023/05/09 15:01:56;;;;;;;4.60;3.28;;;;;;;25.37;48.24;95603.09;2076191;28;20062;-89
2023/05/09 15:02:58;;;;;;;7.05;3.13;;;;;;;25.36;48.41;95597.94;2084822;28;20054;-93
2023/05/09 15:04:00;;;;;;;9.45;2.97;;;;;;;25.66;48.70;95591.81;2083614;28;20060;-86
2023/05/09 15:05:02;;;;;;;10.57;3.33;;;;;;;25.52;47.03;95576.59;2091486;28;20057;-91
2023/05/09 15:06:04;;;;;;;5.68;2.80;;;;;;;25.48;47.21;95580.63;2084521;28;20053;-88
2023/05/09 15:07:06;;;;;;;6.38;3.20;;;;;;;25.48;47.40;95585.94;2068680;28;20051;-90
2023/05/09 15:08:30;;;;;;;8.38;2.95;;;;;;;25.53;50.50;95562.31;2066284;28;20050;-86
2023/05/09 15:09:33;;;;;;;8.02;2.70;;;;;;;25.67;49.76;95590.78;2082074;28;20041;-85
2023/05/09 15:10:34;;;;;;;10.70;3.05;;;;;;;25.68;47.80;95584.47;2082803;28;20551;-88
2023/05/09 15:11:45;;;;;;;7.57;3.35;;;;;;;25.38;47.76;95543.63;2077743;28;20050;-94
2023/05/09 15:12:48;;;;;;;8.82;3.15;;;;;;;25.54;48.02;95585.22;2078190;28;20513;-89
2023/05/09 15:13:51;;;;;;;15.65;3.60;;;;;;;25.55;47.41;95572.75;2081512;28;20045;-85
2023/05/09 15:14:54;;;;;;;10.43;3.88;;;;;;;25.49;51.03;95568.97;2080841;28;20520;-86
